Time;durP1;ratioP1;P1;durP2;ratioP2;P2;SDS_P1;SDS_P2;PMS_P1;PMS_P2;Temp;Humidity;BMP_temperature;BMP_pressure;BME280_temperature;BME280_humidity;BME280_pressure;Samples;Min_cycle;Max_cycle;Signal;HPM_P1;HPM_P2
2021/09/08 00:01:36;;;;;;;58.33;2.80;;;14.60;1.00;;;;;;5071481;28;20493;-70
2021/09/08 00:04:03;;;;;;;58.33;2.90;;;14.60;1.00;;;;;;5071485;28;20485;-69
2021/09/08 00:06:30;;;;;;;58.63;3.27;;;14.50;1.00;;;;;;5071312;28;20450;-69
2021/09/08 00:08:57;;;;;;;58.67;3.23;;;14.50;1.00;;;;;;5071185;28;20873;-69
2021/09/08 00:11:24;;;;;;;60.20;4.13;;;14.50;1.00;;;;;;5071222;28;20887;-69
2021/09/08 00:13:50;;;;;;;58.50;3.00;;;14.40;1.00;;;;;;5071329;28;20463;-69
2021/09/08 00:16:17;;;;;;;58.70;3.30;;;14.40;1.00;;;;;;5071317;28;20453;-69
2021/09/08 00:18:46;;;;;;;59.20;3.30;;;14.40;1.00;;;;;;5071459;28;20538;-69
2021/09/08 00:21:12;;;;;;;58.37;3.17;;;14.40;1.00;;;;;;5070895;28;20481;-69
2021/09/08 00:23:39;;;;;;;58.77;2.97;;;14.40;1.00;;;;;;5070984;28;20473;-69
2021/09/08 00:26:06;;;;;;;58.87;3.33;;;14.40;1.00;;;;;;5074420;28;21006;-69
2021/09/08 00:28:33;;;;;;;58.90;3.17;;;14.40;1.00;;;;;;5075623;28;20519;-69
2021/09/08 00:31:00;;;;;;;58.63;3.00;;;14.30;1.00;;;;;;5074669;28;20534;-69
2021/09/08 00:33:27;;;;;;;58.43;2.93;;;14.30;1.00;;;;;;5074618;28;20467;-69
2021/09/08 00:35:55;;;;;;;59.17;3.70;;;14.30;1.00;;;;;;5074828;28;20476;-70
2021/09/08 00:38:22;;;;;;;58.70;3.30;;;14.20;1.00;;;;;;5074629;28;20994;-69
2021/09/08 00:40:49;;;;;;;58.80;3.30;;;14.20;1.00;;;;;;5074579;28;20493;-69
2021/09/08 00:43:16;;;;;;;58.53;3.10;;;14.10;1.00;;;;;;5074626;28;20469;-69
2021/09/08 00:45:42;;;;;;;59.00;3.20;;;14.10;1.00;;;;;;5074643;28;20534;-69
2021/09/08 00:48:09;;;;;;;58.50;2.77;;;14.10;1.00;;;;;;5074486;28;20455;-69
2021/09/08 00:50:36;;;;;;;58.80;3.40;;;14.10;1.00;;;;;;5074381;28;20534;-69
2021/09/08 00:53:04;;;;;;;59.67;3.63;;;14.10;1.00;;;;;;5074486;28;20463;-69
2021/09/08 00:55:31;;;;;;;58.90;3.23;;;14.10;1.00;;;;;;5074454;28;20443;-69
2021/09/08 00:57:58;;;;;;;59.40;3.23;;;14.10;1.00;;;;;;5074436;28;20475;-69
2021/09/08 01:00:25;;;;;;;58.70;2.70;;;14.10;1.00;;;;;;5073873;28;20553;-69
2021/09/08 01:02:54;;;;;;;58.70;3.77;;;14.00;1.00;;;;;;5074022;28;20571;-68
2021/09/08 01:05:23;;;;;;;58.90;3.10;;;14.00;1.00;;;;;;5072591;28;20454;-69
2021/09/08 01:07:51;;;;;;;58.67;3.30;;;14.00;1.00;;;;;;5074137;28;20968;-69
2021/09/08 01:10:19;;;;;;;58.80;3.30;;;13.90;1.00;;;;;;5073975;28;20481;-69
2021/09/08 01:12:46;;;;;;;59.00;3.20;;;13.90;1.00;;;;;;5073877;28;20554;-69
2021/09/08 01:15:13;;;;;;;58.57;3.13;;;13.80;1.00;;;;;;5074294;28;20619;-69
2021/09/08 01:17:42;;;;;;;58.70;3.13;;;13.80;1.00;;;;;;5073905;28;20446;-69
2021/09/08 01:20:10;;;;;;;58.67;3.20;;;13.80;1.00;;;;;;5073815;28;20880;-69
2021/09/08 01:22:44;;;;;;;63.73;3.70;;;13.80;1.00;;;;;;5073951;28;20473;-69
2021/09/08 01:25:11;;;;;;;58.63;3.43;;;13.80;1.00;;;;;;5073960;28;20881;-69
2021/09/08 01:27:37;;;;;;;58.37;2.73;;;13.70;1.00;;;;;;5073899;28;20530;-69
2021/09/08 01:30:06;;;;;;;58.83;3.30;;;13.70;1.00;;;;;;5073332;28;20513;-69
2021/09/08 01:32:34;;;;;;;59.00;3.57;;;13.70;1.00;;;;;;5073558;28;20470;-69
2021/09/08 01:35:01;;;;;;;60.77;3.30;;;13.70;1.00;;;;;;5073794;28;20486;-69
2021/09/08 01:37:28;;;;;;;58.90;3.20;;;13.70;1.00;;;;;;5073053;28;20453;-69
2021/09/08 01:39:56;;;;;;;58.60;2.93;;;13.70;1.00;;;;;;5073171;28;20447;-69
2021/09/08 01:42:23;;;;;;;58.80;3.20;;;13.60;1.00;;;;;;5073209;28;20515;-69
2021/09/08 01:44:50;;;;;;;58.57;2.80;;;13.60;1.00;;;;;;5073320;28;20478;-69
2021/09/08 01:47:17;;;;;;;58.87;3.20;;;13.50;1.00;;;;;;5073574;28;20447;-69
2021/09/08 01:49:44;;;;;;;58.80;3.13;;;13.40;1.00;;;;;;5073332;28;20923;-69
2021/09/08 01:52:11;;;;;;;58.33;2.80;;;13.40;1.00;;;;;;5073227;28;20439;-69
2021/09/08 01:54:38;;;;;;;58.67;2.90;;;13.40;1.00;;;;;;5073238;28;21051;-69
2021/09/08 01:57:06;;;;;;;58.50;3.30;;;13.40;1.00;;;;;;5073377;28;20546;-69
2021/09/08 01:59:33;;;;;;;58.53;2.90;;;13.30;1.00;;;;;;5073058;28;20458;-69
2021/09/08 02:01:59;;;;;;;58.80;2.97;;;13.30;1.00;;;;;;5073134;28;20574;-69
2021/09/08 02:04:26;;;;;;;58.70;3.10;;;13.30;1.00;;;;;;5072788;28;20562;-69
2021/09/08 02:06:53;;;;;;;58.27;2.70;;;13.20;1.00;;;;;;5073310;28;20447;-69
2021/09/08 02:09:21;;;;;;;58.60;3.10;;;13.20;1.00;;;;;;5072552;28;20447;-69
2021/09/08 02:11:48;;;;;;;58.73;3.03;;;13.20;1.00;;;;;;5072748;28;20444;-69
2021/09/08 02:14:17;;;;;;;58.60;2.80;;;13.20;1.00;;;;;;5073080;28;20467;-69
2021/09/08 02:16:45;;;;;;;58.50;3.40;;;13.10;1.00;;;;;;5072845;28;21018;-70
2021/09/08 02:19:12;;;;;;;59.30;3.73;;;13.20;1.00;;;;;;5072601;28;20447;-70
2021/09/08 02:21:39;;;;;;;58.37;3.00;;;13.20;1.00;;;;;;5072569;28;21121;-68
2021/09/08 02:24:06;;;;;;;58.47;2.80;;;13.10;1.00;;;;;;5072693;28;20465;-70
2021/09/08 02:26:33;;;;;;;58.90;3.20;;;13.10;1.00;;;;;;5072411;28;20538;-68
2021/09/08 02:29:01;;;;;;;58.43;2.80;;;13.00;1.00;;;;;;5072650;28;20494;-69
2021/09/08 02:31:29;;;;;;;58.37;3.00;;;13.00;1.00;;;;;;5072705;28;20485;-69
2021/09/08 02:33:57;;;;;;;60.07;3.27;;;12.90;1.00;;;;;;5072529;28;20467;-69
2021/09/08 02:36:23;;;;;;;59.40;3.70;;;12.90;1.00;;;;;;5072538;28;20455;-69
2021/09/08 02:38:51;;;;;;;58.50;2.67;;;12.90;1.00;;;;;;5072322;28;20443;-69
2021/09/08 02:41:18;;;;;;;58.60;2.80;;;12.90;1.00;;;;;;5071962;28;20582;-69
2021/09/08 02:43:44;;;;;;;59.10;3.50;;;12.90;1.00;;;;;;5072547;28;20467;-69
2021/09/08 02:46:11;;;;;;;58.60;2.80;;;12.90;1.00;;;;;;5072195;28;20449;-69
2021/09/08 02:48:40;;;;;;;58.70;3.10;;;12.80;1.00;;;;;;5071362;28;20534;-69
2021/09/08 02:51:07;;;;;;;58.90;3.30;;;12.80;1.00;;;;;;5072063;28;20860;-69
2021/09/08 02:53:34;;;;;;;58.40;2.60;;;12.80;1.00;;;;;;5071974;28;20463;-69
2021/09/08 02:56:01;;;;;;;59.10;4.60;;;12.70;1.00;;;;;;5071975;28;20458;-69
2021/09/08 02:58:28;;;;;;;58.77;3.07;;;12.70;1.00;;;;;;5072250;28;20481;-68
2021/09/08 03:00:55;;;;;;;58.93;3.10;;;12.70;1.00;;;;;;5071878;28;20475;-68
2021/09/08 03:03:22;;;;;;;58.77;2.80;;;12.70;1.00;;;;;;5072033;28;20478;-69
2021/09/08 03:05:51;;;;;;;58.37;3.07;;;12.60;1.00;;;;;;5071902;28;20538;-69
2021/09/08 03:08:18;;;;;;;59.20;2.90;;;12.60;1.00;;;;;;5071974;28;20780;-69
2021/09/08 03:10:46;;;;;;;59.00;3.40;;;12.60;1.00;;;;;;5071986;28;20451;-69
2021/09/08 03:13:14;;;;;;;58.17;2.53;;;12.70;1.00;;;;;;5072125;28;20970;-69
2021/09/08 03:15:41;;;;;;;58.27;3.10;;;12.70;1.00;;;;;;5072144;28;20443;-69
2021/09/08 03:18:08;;;;;;;58.77;3.60;;;12.60;1.00;;;;;;5071991;28;20893;-69
2021/09/08 03:20:35;;;;;;;59.87;4.17;;;12.60;1.00;;;;;;5071614;28;21014;-69
2021/09/08 03:23:04;;;;;;;59.10;3.10;;;12.60;1.00;;;;;;5072152;28;20553;-69
2021/09/08 03:25:31;;;;;;;59.03;3.40;;;12.50;1.00;;;;;;5071788;28;20439;-69
2021/09/08 03:27:58;;;;;;;58.47;2.70;;;12.50;1.00;;;;;;5071875;28;20443;-69
2021/09/08 03:30:26;;;;;;;58.50;2.83;;;12.50;1.00;;;;;;5071456;28;20447;-69
2021/09/08 03:32:52;;;;;;;59.30;3.83;;;12.40;1.00;;;;;;5071540;28;21017;-69
2021/09/08 03:35:20;;;;;;;58.37;2.80;;;12.40;1.00;;;;;;5071637;28;20841;-70
2021/09/08 03:37:47;;;;;;;58.60;2.77;;;12.30;1.00;;;;;;5071837;28;20809;-70
2021/09/08 03:40:18;;;;;;;58.67;2.80;;;12.30;1.00;;;;;;5071462;28;20512;-68
2021/09/08 03:42:45;;;;;;;58.80;3.20;;;12.20;1.00;;;;;;5071647;28;20495;-69
2021/09/08 03:45:14;;;;;;;58.70;3.00;;;12.20;1.00;;;;;;5071560;28;20455;-69
2021/09/08 03:47:42;;;;;;;59.07;3.10;;;12.20;1.00;;;;;;5071553;28;20452;-69
2021/09/08 03:50:10;;;;;;;59.40;4.80;;;12.20;1.00;;;;;;5071247;28;20932;-69
2021/09/08 03:52:36;;;;;;;59.80;3.50;;;12.20;1.00;;;;;;5071608;28;20485;-69
2021/09/08 03:55:04;;;;;;;58.97;3.10;;;12.20;1.00;;;;;;5072223;28;20455;-69
2021/09/08 03:57:32;;;;;;;58.20;2.70;;;12.20;1.00;;;;;;5071646;28;20450;-69
2021/09/08 03:59:59;;;;;;;58.37;2.80;;;12.30;1.00;;;;;;5072902;28;20455;-69
2021/09/08 04:02:26;;;;;;;58.60;3.00;;;12.30;1.00;;;;;;5075112;28;20577;-69
2021/09/08 04:04:52;;;;;;;58.90;3.10;;;12.30;1.00;;;;;;5075584;28;20799;-69
2021/09/08 04:07:19;;;;;;;58.27;2.90;;;12.30;1.00;;;;;;5075511;28;20453;-69
2021/09/08 04:09:46;;;;;;;58.67;3.00;;;12.30;1.00;;;;;;5075186;28;20485;-69
2021/09/08 04:12:13;;;;;;;58.57;3.00;;;12.30;1.00;;;;;;5074988;28;20458;-69
2021/09/08 04:14:41;;;;;;;58.27;2.60;;;12.30;1.00;;;;;;5075313;28;20538;-69
2021/09/08 04:17:08;;;;;;;58.57;2.80;;;12.30;1.00;;;;;;5075280;28;20537;-69
2021/09/08 04:19:35;;;;;;;59.10;3.33;;;12.20;1.00;;;;;;5074838;28;20578;-69
2021/09/08 04:22:01;;;;;;;58.47;2.80;;;12.20;1.00;;;;;;5075124;28;20509;-69
2021/09/08 04:24:28;;;;;;;58.47;2.80;;;12.20;1.00;;;;;;5074966;28;20549;-69
2021/09/08 04:26:55;;;;;;;58.60;3.10;;;12.20;1.00;;;;;;5074974;28;20443;-69
2021/09/08 04:29:22;;;;;;;58.37;3.00;;;12.20;1.00;;;;;;5074901;28;20533;-69
2021/09/08 04:31:50;;;;;;;58.50;3.17;;;12.10;1.00;;;;;;5074968;28;20534;-69
2021/09/08 04:34:17;;;;;;;59.50;3.83;;;12.10;1.00;;;;;;5074697;28;20502;-69
2021/09/08 04:36:44;;;;;;;58.50;2.60;;;12.10;1.00;;;;;;5075009;28;20541;-69
2021/09/08 04:39:11;;;;;;;58.50;2.90;;;12.10;1.00;;;;;;5074318;28;21011;-69
2021/09/08 04:41:37;;;;;;;58.37;3.00;;;12.00;1.00;;;;;;5074708;28;20479;-69
2021/09/08 04:44:05;;;;;;;58.37;2.70;;;12.00;1.00;;;;;;5074484;28;20501;-69
2021/09/08 04:46:32;;;;;;;58.50;2.90;;;12.00;1.00;;;;;;5074593;28;20598;-69
2021/09/08 04:49:00;;;;;;;58.47;2.87;;;11.90;1.00;;;;;;5074509;28;20454;-69
2021/09/08 04:51:27;;;;;;;58.33;2.60;;;11.90;1.00;;;;;;5074453;28;20903;-69
2021/09/08 04:53:54;;;;;;;58.47;2.77;;;11.90;1.00;;;;;;5074408;28;20502;-69
2021/09/08 04:56:20;;;;;;;58.77;3.20;;;11.90;1.00;;;;;;5074212;28;20447;-69
2021/09/08 04:58:47;;;;;;;59.27;3.00;;;11.90;1.00;;;;;;5074245;28;20451;-69
2021/09/08 05:01:14;;;;;;;59.07;3.00;;;11.90;1.00;;;;;;5074282;28;20478;-69
2021/09/08 05:03:41;;;;;;;58.53;3.00;;;11.90;1.00;;;;;;5074158;28;20506;-69
2021/09/08 05:06:09;;;;;;;58.60;3.00;;;11.90;1.00;;;;;;5074300;28;20963;-69
2021/09/08 05:08:36;;;;;;;59.40;2.90;;;11.90;1.00;;;;;;5074072;28;20953;-69
2021/09/08 05:11:04;;;;;;;58.33;2.80;;;11.90;1.00;;;;;;5072910;28;20550;-69
2021/09/08 05:13:31;;;;;;;58.73;3.37;;;11.90;1.00;;;;;;5074193;28;20822;-69
2021/09/08 05:15:58;;;;;;;58.87;3.50;;;12.00;1.00;;;;;;5074046;28;20443;-69
2021/09/08 05:18:25;;;;;;;58.47;2.67;;;12.00;1.00;;;;;;5073932;28;20965;-69
2021/09/08 05:20:52;;;;;;;58.37;2.90;;;12.00;1.00;;;;;;5073772;28;20852;-69
2021/09/08 05:23:20;;;;;;;58.57;3.00;;;12.00;1.00;;;;;;5073772;28;20570;-69
2021/09/08 05:25:47;;;;;;;58.47;3.00;;;11.90;1.00;;;;;;5073642;28;20530;-69
2021/09/08 05:28:14;;;;;;;58.77;2.90;;;11.90;1.00;;;;;;5073829;28;20447;-69
2021/09/08 05:30:40;;;;;;;58.23;2.70;;;11.90;1.00;;;;;;5073597;28;20479;-69
2021/09/08 05:33:07;;;;;;;58.57;3.10;;;11.90;1.00;;;;;;5073623;28;20463;-69
2021/09/08 05:35:34;;;;;;;58.50;2.80;;;11.90;1.00;;;;;;5073754;28;20809;-69
2021/09/08 05:38:01;;;;;;;59.37;3.00;;;11.90;1.00;;;;;;5073937;28;20551;-69
2021/09/08 05:40:29;;;;;;;59.10;3.00;;;11.90;1.00;;;;;;5073393;28;20483;-69
2021/09/08 05:42:56;;;;;;;58.37;2.83;;;11.90;1.00;;;;;;5073187;28;20487;-69
2021/09/08 05:45:25;;;;;;;58.67;3.23;;;11.90;1.00;;;;;;5073423;28;20459;-69
2021/09/08 05:47:51;;;;;;;58.17;2.70;;;11.90;1.00;;;;;;5073472;28;20451;-69
2021/09/08 05:50:18;;;;;;;58.33;2.70;;;11.90;1.00;;;;;;5072906;28;20526;-69
2021/09/08 05:52:45;;;;;;;58.70;3.10;;;11.90;1.00;;;;;;5073065;28;20469;-69
2021/09/08 05:55:12;;;;;;;58.60;2.80;;;12.00;1.00;;;;;;5073266;28;20473;-69
2021/09/08 05:57:40;;;;;;;58.40;2.97;;;12.00;1.00;;;;;;5073506;28;20538;-69
2021/09/08 06:00:08;;;;;;;58.37;2.93;;;12.00;1.00;;;;;;5073087;28;20454;-69
2021/09/08 06:02:35;;;;;;;58.40;2.80;;;12.10;1.00;;;;;;5072658;28;20573;-68
2021/09/08 06:05:02;;;;;;;58.70;3.63;;;12.10;1.00;;;;;;5073334;28;20852;-68
2021/09/08 06:07:29;;;;;;;58.30;2.87;;;12.10;1.00;;;;;;5072864;28;20902;-69
2021/09/08 06:09:55;;;;;;;58.37;2.90;;;12.20;1.00;;;;;;5072816;28;20886;-69
2021/09/08 06:12:22;;;;;;;58.13;2.90;;;12.20;1.00;;;;;;5072886;28;20450;-68
2021/09/08 06:14:50;;;;;;;58.60;3.50;;;12.30;1.00;;;;;;5072976;28;20534;-69
2021/09/08 06:17:17;;;;;;;58.37;2.90;;;12.30;1.00;;;;;;5072694;28;20837;-69
2021/09/08 06:19:44;;;;;;;59.87;3.97;;;12.40;1.00;;;;;;5072362;28;20542;-69
2021/09/08 06:22:11;;;;;;;58.77;3.43;;;12.40;1.00;;;;;;5072491;28;20566;-69
2021/09/08 06:24:38;;;;;;;59.27;3.10;;;12.40;1.00;;;;;;5072832;28;21023;-69
2021/09/08 06:27:04;;;;;;;58.47;2.90;;;12.50;1.00;;;;;;5072322;28;20530;-69
2021/09/08 06:29:31;;;;;;;58.53;3.00;;;12.60;1.00;;;;;;5072198;28;20481;-69
2021/09/08 06:32:00;;;;;;;58.47;2.90;;;12.60;1.00;;;;;;5072596;28;20457;-69
2021/09/08 06:34:26;;;;;;;58.50;2.87;;;12.70;1.00;;;;;;5072300;28;20469;-69
2021/09/08 06:36:54;;;;;;;58.03;2.70;;;12.70;1.00;;;;;;5072516;28;20549;-69
2021/09/08 06:39:21;;;;;;;58.23;2.70;;;12.80;1.00;;;;;;5072191;28;20462;-69
2021/09/08 06:41:48;;;;;;;58.80;3.23;;;12.90;1.00;;;;;;5072263;28;20447;-69
2021/09/08 06:44:15;;;;;;;58.20;2.53;;;12.90;1.00;;;;;;5072303;28;20463;-69
2021/09/08 06:46:42;;;;;;;59.87;3.00;;;13.00;1.00;;;;;;5072228;28;20534;-69
2021/09/08 06:49:10;;;;;;;59.20;4.10;;;13.00;1.00;;;;;;5071820;28;20490;-69
2021/09/08 06:51:37;;;;;;;58.43;2.80;;;13.10;1.00;;;;;;5072322;28;20539;-69
2021/09/08 06:54:04;;;;;;;58.30;2.77;;;13.10;1.00;;;;;;5071949;28;20463;-69
2021/09/08 06:56:31;;;;;;;58.37;3.00;;;13.20;1.00;;;;;;5072124;28;20452;-69
2021/09/08 06:58:57;;;;;;;58.37;2.90;;;13.20;1.00;;;;;;5072125;28;20530;-69
2021/09/08 07:01:24;;;;;;;58.37;2.70;;;13.30;1.00;;;;;;5071530;28;20546;-70
2021/09/08 07:03:51;;;;;;;58.47;2.77;;;13.40;1.00;;;;;;5071798;28;20569;-69
2021/09/08 07:06:22;;;;;;;58.17;2.60;;;13.50;1.00;;;;;;5069927;28;20447;-69
2021/09/08 07:08:49;;;;;;;58.23;2.90;;;13.60;1.00;;;;;;5071189;28;20450;-68
2021/09/08 07:11:16;;;;;;;58.20;2.70;;;13.60;1.00;;;;;;5070984;28;20447;-69
2021/09/08 07:13:43;;;;;;;58.27;2.83;;;13.70;1.00;;;;;;5071253;28;20546;-68
2021/09/08 07:16:10;;;;;;;58.07;2.70;;;13.80;1.00;;;;;;5071541;28;20866;-69
2021/09/08 07:18:38;;;;;;;58.67;3.00;;;13.90;1.00;;;;;;5069721;28;20453;-69
2021/09/08 07:21:05;;;;;;;59.00;4.03;;;14.00;1.00;;;;;;5071021;28;20451;-69
2021/09/08 07:23:34;;;;;;;58.90;4.00;;;14.10;1.00;;;;;;5071176;28;20489;-69
2021/09/08 07:26:01;;;;;;;60.50;5.10;;;14.20;1.00;;;;;;5071630;28;20447;-69
2021/09/08 07:28:27;;;;;;;58.90;3.60;;;14.30;1.00;;;;;;5058809;28;20968;-69
2021/09/08 07:30:54;;;;;;;58.07;2.80;;;14.40;1.00;;;;;;5051621;28;20631;-69
2021/09/08 07:33:22;;;;;;;59.20;3.10;;;14.50;1.00;;;;;;5051774;28;20496;-69
2021/09/08 07:35:49;;;;;;;58.90;3.10;;;14.60;1.00;;;;;;5057634;28;20447;-69
2021/09/08 07:38:17;;;;;;;58.60;3.13;;;14.70;1.00;;;;;;5058169;28;20449;-69
2021/09/08 07:40:45;;;;;;;59.37;3.80;;;14.90;1.00;;;;;;5057942;28;20664;-69
2021/09/08 07:43:12;;;;;;;59.00;4.30;;;15.00;1.00;;;;;;5057969;28;20867;-69
2021/09/08 07:45:39;;;;;;;57.87;2.50;;;15.10;1.00;;;;;;5058312;28;20816;-69
2021/09/08 07:48:06;;;;;;;58.80;3.57;;;15.20;1.00;;;;;;5057795;28;20448;-70
2021/09/08 07:50:34;;;;;;;59.10;3.53;;;15.30;1.00;;;;;;5062413;28;20534;-70
2021/09/08 07:53:02;;;;;;;60.50;3.33;;;15.40;1.00;;;;;;5078113;28;20463;-70
2021/09/08 07:55:29;;;;;;;58.27;3.10;;;15.50;1.00;;;;;;5078000;28;20479;-70
2021/09/08 07:57:58;;;;;;;58.30;3.00;;;15.70;1.00;;;;;;5077995;28;20483;-70
2021/09/08 08:00:24;;;;;;;58.57;2.90;;;15.90;1.00;;;;;;5078013;28;20558;-70
2021/09/08 08:02:52;;;;;;;58.23;3.10;;;16.00;1.00;;;;;;5077996;28;20491;-70
2021/09/08 08:05:20;;;;;;;59.17;3.23;;;16.20;1.00;;;;;;5078052;28;20543;-71
2021/09/08 08:07:48;;;;;;;58.87;3.30;;;16.30;1.00;;;;;;5076767;28;20451;-71
2021/09/08 08:10:16;;;;;;;59.97;3.27;;;16.50;1.00;;;;;;5077601;28;20448;-70
2021/09/08 08:12:43;;;;;;;62.17;6.17;;;16.60;1.00;;;;;;5078136;28;20464;-70
2021/09/08 08:15:13;;;;;;;58.40;3.07;;;16.70;1.00;;;;;;5078107;28;20445;-70
2021/09/08 08:17:40;;;;;;;58.90;3.87;;;16.90;1.00;;;;;;5077975;28;20445;-70
2021/09/08 08:20:09;;;;;;;60.67;4.40;;;17.10;1.00;;;;;;5077846;28;20446;-70
2021/09/08 08:22:36;;;;;;;58.77;3.50;;;17.30;1.00;;;;;;5075609;28;20910;-70
2021/09/08 08:25:04;;;;;;;58.17;2.60;;;17.40;1.00;;;;;;5077791;28;20538;-70
2021/09/08 08:27:31;;;;;;;58.87;3.07;;;17.60;1.00;;;;;;5077892;28;20446;-71
2021/09/08 08:29:58;;;;;;;58.40;2.77;;;17.80;1.00;;;;;;5077504;28;20977;-71
2021/09/08 08:32:26;;;;;;;58.27;2.80;;;18.00;1.00;;;;;;5077751;28;20527;-71
2021/09/08 08:34:53;;;;;;;59.00;3.60;;;18.10;1.00;;;;;;5078091;28;20536;-71
2021/09/08 08:37:20;;;;;;;58.37;2.97;;;18.30;1.00;;;;;;5077607;28;20537;-70
2021/09/08 08:39:47;;;;;;;58.80;2.90;;;18.50;1.00;;;;;;5077633;28;20450;-71
2021/09/08 08:42:22;;;;;;;59.63;3.73;;;18.60;1.00;;;;;;5077727;28;20442;-71
2021/09/08 08:44:50;;;;;;;59.37;3.10;;;18.90;1.00;;;;;;5077801;28;20435;-71
2021/09/08 08:47:18;;;;;;;58.37;3.20;;;19.10;1.00;;;;;;5074557;28;20530;-71
2021/09/08 08:49:47;;;;;;;58.40;3.20;;;19.30;1.00;;;;;;5074230;28;20444;-71
2021/09/08 08:52:14;;;;;;;58.57;2.90;;;19.50;1.00;;;;;;5074638;28;20457;-71
2021/09/08 08:54:41;;;;;;;58.27;2.80;;;19.70;1.00;;;;;;5065924;28;20535;-70
2021/09/08 08:57:09;;;;;;;58.67;2.63;;;20.00;1.00;;;;;;5054499;28;20440;-70
2021/09/08 08:59:36;;;;;;;58.30;2.53;;;20.20;1.00;;;;;;5054095;28;20454;-70
2021/09/08 09:02:20;;;;;;;57.50;2.43;;;20.40;1.00;;;;;;5054331;28;20528;-70
2021/09/08 09:04:50;;;;;;;58.40;2.80;;;20.60;1.00;;;;;;5054100;28;20527;-70
2021/09/08 09:07:26;;;;;;;58.30;3.33;;;20.80;1.00;;;;;;5054189;28;20482;-70
2021/09/08 09:09:55;;;;;;;58.50;2.90;;;21.10;1.00;;;;;;5053743;28;20893;-70
2021/09/08 09:12:26;;;;;;;58.97;3.60;;;21.30;1.00;;;;;;5054313;28;20536;-69
2021/09/08 09:14:58;;;;;;;58.20;2.50;;;21.50;1.00;;;;;;5053871;28;20534;-69
2021/09/08 09:17:26;;;;;;;58.07;2.90;;;21.70;1.00;;;;;;5054221;28;20482;-69
2021/09/08 09:19:55;;;;;;;58.07;2.90;;;21.90;1.00;;;;;;5053625;28;20494;-69
2021/09/08 09:22:34;;;;;;;58.13;2.77;;;22.00;1.00;;;;;;5053977;28;20444;-69
2021/09/08 09:25:01;;;;;;;59.17;2.60;;;22.10;1.00;;;;;;5053747;28;20454;-69
2021/09/08 09:27:28;;;;;;;58.50;3.10;;;22.30;1.00;;;;;;5052255;28;20453;-69
2021/09/08 09:30:05;;;;;;;58.07;2.90;;;22.50;1.00;;;;;;5053298;28;20999;-69
2021/09/08 09:32:36;;;;;;;58.40;3.00;;;22.70;1.00;;;;;;5052989;28;20463;-69
2021/09/08 09:35:05;;;;;;;58.40;3.03;;;22.90;1.00;;;;;;5052998;28;20444;-68
2021/09/08 09:37:33;;;;;;;58.27;3.27;;;23.10;1.00;;;;;;5053476;28;20450;-68
2021/09/08 09:40:03;;;;;;;58.47;3.20;;;23.30;1.00;;;;;;5053190;28;20451;-69
2021/09/08 09:42:31;;;;;;;60.07;5.10;;;23.40;1.00;;;;;;5053604;28;20455;-68
2021/09/08 09:45:00;;;;;;;58.17;2.50;;;23.60;1.00;;;;;;5053518;28;20482;-68
2021/09/08 09:47:27;;;;;;;58.10;2.60;;;23.80;1.00;;;;;;5053473;28;20453;-69
2021/09/08 09:49:55;;;;;;;58.07;2.80;;;24.00;1.00;;;;;;5053077;28;21001;-69
2021/09/08 09:52:25;;;;;;;58.60;3.00;;;24.30;1.00;;;;;;5052427;28;20454;-69
2021/09/08 09:54:52;;;;;;;58.47;2.60;;;24.50;1.00;;;;;;5052952;28;20456;-69
2021/09/08 09:57:19;;;;;;;58.63;3.07;;;25.00;1.00;;;;;;5052555;28;20549;-69
2021/09/08 09:59:46;;;;;;;59.97;2.70;;;25.70;1.00;;;;;;5060659;28;20980;-70
2021/09/08 10:02:13;;;;;;;58.07;2.50;;;26.50;1.00;;;;;;5072986;28;20558;-70
2021/09/08 10:04:40;;;;;;;58.50;2.53;;;27.30;1.00;;;;;;5072813;28;20482;-70
2021/09/08 10:07:09;;;;;;;60.20;3.40;;;28.30;1.00;;;;;;5073135;28;20538;-70
2021/09/08 10:09:38;;;;;;;58.80;2.77;;;29.30;1.00;;;;;;5072756;28;20448;-70
2021/09/08 10:12:07;;;;;;;58.10;2.80;;;30.10;1.00;;;;;;5073324;28;20532;-69
2021/09/08 10:14:34;;;;;;;57.87;2.77;;;30.60;1.00;;;;;;5072682;28;20550;-70
2021/09/08 10:17:03;;;;;;;58.60;2.90;;;30.90;1.00;;;;;;5072717;28;20453;-69
2021/09/08 10:19:31;;;;;;;57.80;2.43;;;31.40;1.00;;;;;;5072123;28;20447;-69
2021/09/08 10:22:07;;;;;;;58.40;2.93;;;31.90;1.00;;;;;;5072527;28;20451;-69
2021/09/08 10:24:34;;;;;;;58.30;3.20;;;32.50;1.00;;;;;;5072511;28;20701;-69
2021/09/08 10:27:19;;;;;;;57.80;3.10;;;32.90;1.00;;;;;;5072383;28;20452;-70
2021/09/08 10:29:50;;;;;;;57.23;2.30;;;33.40;1.00;;;;;;5071830;28;20458;-70
2021/09/08 10:32:20;;;;;;;59.13;3.77;;;33.90;1.00;;;;;;5059694;28;20857;-70
2021/09/08 10:34:49;;;;;;;57.67;2.40;;;34.00;1.00;;;;;;5052734;28;20440;-70
2021/09/08 10:37:17;;;;;;;58.90;2.80;;;33.70;1.00;;;;;;5052023;28;20944;-71
2021/09/08 10:39:44;;;;;;;59.80;2.87;;;33.70;1.00;;;;;;5052104;28;20451;-70
2021/09/08 10:42:12;;;;;;;57.97;2.70;;;33.90;1.00;;;;;;5052175;28;20531;-70
2021/09/08 10:44:45;;;;;;;57.67;3.20;;;34.10;1.00;;;;;;5052186;28;20526;-68
2021/09/08 10:47:13;;;;;;;57.57;2.60;;;34.40;1.00;;;;;;5052107;28;20539;-69
2021/09/08 10:49:49;;;;;;;57.90;2.67;;;34.70;1.00;;;;;;5052011;28;20456;-69
2021/09/08 10:52:47;;;;;;;57.60;2.60;;;35.10;1.00;;;;;;5052132;28;20451;-69
2021/09/08 10:55:20;;;;;;;57.70;2.60;;;35.20;1.00;;;;;;5052410;28;20459;-69
2021/09/08 10:57:58;;;;;;;57.80;2.70;;;35.30;1.00;;;;;;5052299;28;20452;-69
2021/09/08 11:00:38;;;;;;;58.57;2.70;;;35.20;1.00;;;;;;5052243;28;20456;-70
2021/09/08 11:03:25;;;;;;;57.67;2.50;;;35.20;1.00;;;;;;5049536;28;20487;-70
2021/09/08 11:05:55;;;;;;;57.50;2.73;;;35.50;1.00;;;;;;5052052;28;20448;-69
2021/09/08 11:08:28;;;;;;;58.27;4.00;;;35.90;1.00;;;;;;5051584;28;20440;-69
2021/09/08 11:11:13;;;;;;;57.10;2.10;;;36.10;1.00;;;;;;5051394;28;20819;-70
2021/09/08 11:13:42;;;;;;;57.13;2.33;;;36.20;1.00;;;;;;5051459;28;20541;-70
2021/09/08 11:16:20;;;;;;;57.70;2.67;;;36.10;1.00;;;;;;5051730;28;20971;-70
2021/09/08 11:18:47;;;;;;;57.50;2.23;;;36.00;1.00;;;;;;5051524;28;20535;-70
2021/09/08 11:21:16;;;;;;;58.07;2.33;;;36.20;1.00;;;;;;5051483;28;20451;-70
2021/09/08 11:23:43;;;;;;;57.27;2.30;;;36.60;1.00;;;;;;5051372;28;20484;-70
2021/09/08 11:26:12;;;;;;;57.10;2.13;;;36.70;1.00;;;;;;5051345;28;20452;-70
2021/09/08 11:28:41;;;;;;;57.07;2.07;;;36.60;1.00;;;;;;5051744;28;20448;-70
2021/09/08 11:31:14;;;;;;;58.60;2.90;;;36.60;1.00;;;;;;5051382;28;20454;-69
2021/09/08 11:33:41;;;;;;;59.53;2.43;;;36.50;1.00;;;;;;5051540;28;20552;-69
2021/09/08 11:36:13;;;;;;;58.17;3.20;;;36.60;1.00;;;;;;5049975;28;20453;-71
2021/09/08 11:38:46;;;;;;;57.87;2.67;;;36.80;1.00;;;;;;5051464;28;20535;-70
2021/09/08 11:41:14;;;;;;;56.83;2.10;;;37.00;1.00;;;;;;5051187;28;20459;-70
2021/09/08 11:43:44;;;;;;;56.70;2.10;;;37.10;1.00;;;;;;5051552;28;20516;-70
2021/09/08 11:46:13;;;;;;;56.97;2.53;;;37.40;1.00;;;;;;5051439;28;20498;-70
2021/09/08 11:48:40;;;;;;;57.87;2.50;;;37.50;1.00;;;;;;5051499;28;20540;-71
2021/09/08 11:51:09;;;;;;;57.40;2.60;;;37.50;1.00;;;;;;5050992;28;20445;-70
2021/09/08 11:53:37;;;;;;;57.10;2.20;;;37.40;1.00;;;;;;5051636;28;20554;-71
2021/09/08 11:56:08;;;;;;;57.20;2.17;;;37.40;1.00;;;;;;5051308;28;20445;-71
2021/09/08 11:58:36;;;;;;;57.97;2.47;;;37.10;1.00;;;;;;5051736;28;20448;-70
2021/09/08 12:01:07;;;;;;;57.83;2.60;;;37.00;1.00;;;;;;5051025;28;21039;-70
2021/09/08 12:03:39;;;;;;;57.87;2.97;;;37.10;1.00;;;;;;5050797;28;20480;-70
2021/09/08 12:06:14;;;;;;;57.27;2.47;;;37.30;1.00;;;;;;5051453;28;20448;-71
2021/09/08 12:08:55;;;;;;;57.67;2.83;;;37.60;1.00;;;;;;5064239;28;20455;-71
2021/09/08 12:11:39;;;;;;;56.90;2.20;;;37.90;1.00;;;;;;5071211;28;20878;-68
2021/09/08 12:14:40;;;;;;;57.63;2.63;;;38.30;1.00;;;;;;5070971;28;20947;-68
2021/09/08 12:17:21;;;;;;;58.47;2.50;;;38.40;1.00;;;;;;5060221;28;20450;-67
2021/09/08 12:19:54;;;;;;;56.80;2.20;;;38.40;1.00;;;;;;5070906;28;20493;-68
2021/09/08 12:22:23;;;;;;;56.90;2.33;;;38.30;1.00;;;;;;5075150;28;20443;-68
2021/09/08 12:24:52;;;;;;;58.27;2.77;;;38.30;1.00;;;;;;5074729;28;20939;-68
2021/09/08 12:27:30;;;;;;;58.00;2.73;;;38.10;1.00;;;;;;5074656;28;20947;-68
2021/09/08 12:29:59;;;;;;;57.77;2.67;;;38.10;1.00;;;;;;5074447;28;20534;-69
2021/09/08 12:32:46;;;;;;;56.90;2.60;;;38.20;1.00;;;;;;5074603;28;20443;-68
2021/09/08 12:35:32;;;;;;;57.27;2.60;;;38.20;1.00;;;;;;5074956;28;20489;-69
2021/09/08 12:37:59;;;;;;;57.47;2.17;;;38.10;1.00;;;;;;5074737;28;20533;-68
2021/09/08 12:40:26;;;;;;;56.90;2.23;;;38.00;1.00;;;;;;5074372;28;20446;-69
2021/09/08 12:42:53;;;;;;;57.03;3.20;;;38.10;1.00;;;;;;5074710;28;20506;-69
2021/09/08 12:45:20;;;;;;;57.17;2.60;;;38.10;1.00;;;;;;5074252;28;20474;-68
2021/09/08 12:47:56;;;;;;;56.70;2.33;;;38.20;1.00;;;;;;5074672;28;20817;-68
2021/09/08 12:50:24;;;;;;;57.13;2.77;;;38.20;1.00;;;;;;5074401;28;20450;-68
2021/09/08 12:52:51;;;;;;;57.00;2.87;;;38.20;1.00;;;;;;5074405;28;20558;-68
2021/09/08 12:55:18;;;;;;;57.70;2.40;;;38.30;1.00;;;;;;5074232;28;20995;-69